KTCL/TCL METAR and TAF weather

Enter ICAO airport designator
Station Type Date Time Source
KTCL METAR 2021/09/24 04:53 UTC NOAA

KTCL 240453Z AUTO 00000KT 10SM CLR 13/12 A3010 RMK AO2 SLP190 T01330122


Station Type Date Time Source
KTCL Decoded METAR 2021/09/24 04:53 UTC NOAA

TUSCALOOSA REGIONAL AIRPORT, AL, United States (KTCL) 33-13N 087-37W
Sep 24, 2021 - 12:53 AM EDT / 2021.09.24 0453 UTC
Wind: Calm:0
Visibility: 10 mile(s):0
Sky conditions: clear
Temperature: 55.9 F (13.3 C)
Dew Point: 54.0 F (12.2 C)
Relative Humidity: 93%
Pressure (altimeter): 30.1 in. Hg (1019 hPa)
ob: KTCL 240453Z AUTO 00000KT 10SM CLR 13/12 A3010 RMK AO2 SLP190 T01330122
cycle: 5

Station Type Date Time Source
KTCL TAF 2021/09/24 06:21 UTC NOAA

TAF KTCL 240520Z 2406/2506 00000KT P6SM SKC
FM241500 03006KT P6SM SKC
FM250100 00000KT P6SM SKC

Example: see airport list